Delta Virtual Airport Information Service

Mumbai Chhatrapati Shivaji International Airport

ICAO: VABB Country: India
Latitude: 19.0887 Longitude: 72.8679
Latest Arrival : DAL5633731 (WSSS-VABB) Latest Departure : DAC355 (VABB-EGLL)


WX CaptureLIVE
Data provided by noaa.gov | Fetched at 09:57:27

METAR : VABB 231500Z 34005KT 4000 FU NSC 28/17 Q1013 BECMG 3000 FU

TAF : VABB 231100Z 2312/2418 33007KT 3000 FU FEW020 BECMG 2315/2317 03005KT BECMG 2322/2324 09005KT 2500 HZ FEW100 BECMG 2406/2408 29010KT 3000 FU FEW020 BECMG 2413/2415 35005KT


Runway Data for VABB
Data provided by openaviationdata.com

Runway ID Mag Var Hdg Length Elevation Surface ILS Freq ILS Id ILS Slope
9 -1 91° 11337 ft 37 ft Asphalt 109.5 IBOM 3
14 -1 136° 9622 ft 37 ft Asphalt 110.1 IBBY 3
27 -1 271° 11337 ft 37 ft Asphalt 110.3 ISCZ 3
32 -1 316° 9622 ft 37 ft Asphalt -- -- --

Mumbai Chhatrapati Shivaji International Airport, India
Use only for reference purposes



Not for navigational purposes.